createdAt,value
2023-05-08T00:00:59.508Z,99.99
2023-05-08T00:01:59.409Z,99.99
2023-05-08T00:02:59.450Z,99.99
2023-05-08T00:03:59.623Z,99.99
2023-05-08T00:04:59.520Z,99.99
2023-05-08T00:05:59.334Z,99.99
2023-05-08T00:06:59.320Z,99.99
2023-05-08T00:07:59.291Z,99.99
2023-05-08T00:08:59.267Z,99.99
2023-05-08T00:09:59.288Z,99.99
2023-05-08T00:10:59.252Z,99.99
2023-05-08T00:11:59.254Z,99.99
2023-05-08T00:12:59.310Z,99.99
2023-05-08T00:13:59.287Z,99.99
2023-05-08T00:14:59.193Z,99.99
2023-05-08T00:15:59.216Z,99.99
2023-05-08T00:16:59.226Z,99.99
2023-05-08T00:17:59.239Z,99.99
2023-05-08T00:18:59.207Z,99.99
2023-05-08T00:19:59.160Z,99.99
2023-05-08T00:20:59.129Z,99.99
2023-05-08T00:21:59.115Z,99.99
2023-05-08T00:22:59.101Z,99.99
2023-05-08T00:23:59.107Z,99.99
2023-05-08T00:24:59.134Z,99.99
2023-05-08T00:25:59.083Z,99.99
2023-05-08T00:26:59.068Z,99.99
2023-05-08T00:27:59.069Z,99.99
2023-05-08T00:28:59.058Z,99.99
2023-05-08T00:29:59.046Z,99.99
2023-05-08T00:30:59.019Z,99.99
2023-05-08T00:31:59.070Z,99.99
2023-05-08T00:32:59.075Z,99.99
2023-05-08T00:33:58.997Z,99.99
2023-05-08T00:34:58.965Z,99.99
2023-05-08T00:35:58.947Z,99.99
2023-05-08T00:36:58.946Z,99.99
2023-05-08T00:37:59.005Z,99.99
2023-05-08T00:38:58.923Z,99.99
2023-05-08T00:39:58.895Z,99.99
2023-05-08T00:40:58.883Z,99.99
2023-05-08T00:41:58.943Z,99.99
2023-05-08T00:42:58.869Z,99.99
2023-05-08T00:43:58.850Z,99.99
2023-05-08T00:44:58.857Z,99.99
2023-05-08T00:46:01.725Z,99.99
2023-05-08T00:46:58.841Z,99.99
2023-05-08T00:47:58.850Z,99.99
2023-05-08T00:48:58.807Z,99.99
2023-05-08T00:49:58.785Z,99.99
2023-05-08T00:50:58.768Z,99.99
2023-05-08T00:51:58.789Z,99.99
2023-05-08T00:52:58.761Z,99.99
2023-05-08T00:53:58.730Z,99.99
2023-05-08T00:54:58.735Z,99.99
2023-05-08T00:55:58.765Z,99.99
2023-05-08T00:56:58.716Z,99.99
2023-05-08T00:57:58.682Z,99.99
2023-05-08T00:58:58.692Z,99.99
2023-05-08T00:59:58.775Z,99.99
2023-05-08T01:00:58.692Z,99.99
2023-05-08T01:01:58.711Z,99.99
2023-05-08T01:02:58.721Z,99.99
2023-05-08T01:03:58.667Z,99.99
2023-05-08T01:04:58.635Z,99.99
2023-05-08T01:05:58.657Z,99.99
2023-05-08T01:06:58.616Z,99.99
2023-05-08T01:07:58.602Z,99.99
2023-05-08T01:08:58.570Z,99.99
2023-05-08T01:09:58.572Z,99.99
2023-05-08T01:10:58.588Z,99.99
2023-05-08T01:11:58.535Z,99.99
2023-05-08T01:12:58.560Z,99.99
2023-05-08T01:13:58.505Z,99.99
2023-05-08T01:14:58.505Z,99.99
2023-05-08T01:15:58.516Z,99.99
2023-05-08T01:16:58.519Z,99.99
2023-05-08T01:17:58.550Z,99.99
2023-05-08T01:18:58.452Z,99.99
2023-05-08T01:19:58.466Z,99.99
2023-05-08T01:20:58.419Z,99.99
2023-05-08T01:21:58.427Z,99.99
2023-05-08T01:22:58.705Z,99.99
2023-05-08T01:23:58.421Z,99.99
2023-05-08T01:24:58.406Z,99.99
2023-05-08T01:25:58.375Z,99.99
2023-05-08T01:26:58.374Z,99.99
2023-05-08T01:27:58.356Z,99.99
2023-05-08T01:28:58.349Z,99.99
2023-05-08T01:29:58.330Z,99.99
2023-05-08T01:30:58.305Z,99.99
2023-05-08T01:31:58.341Z,99.99
2023-05-08T01:32:58.464Z,99.99
2023-05-08T01:33:58.329Z,99.99
2023-05-08T01:34:58.274Z,99.99
2023-05-08T01:35:58.242Z,99.99
2023-05-08T01:36:58.290Z,99.99
2023-05-08T01:37:58.218Z,99.99
2023-05-08T01:38:58.219Z,99.99
2023-05-08T01:39:58.212Z,99.99
2023-05-08T01:40:58.208Z,99.99
2023-05-08T01:41:58.196Z,99.99
2023-05-08T01:42:58.200Z,99.99
2023-05-08T01:43:58.159Z,99.99
2023-05-08T01:44:58.137Z,99.99
2023-05-08T01:45:58.152Z,99.99
2023-05-08T01:46:58.162Z,99.99
2023-05-08T01:47:58.147Z,99.99
2023-05-08T01:48:58.127Z,99.99
2023-05-08T01:49:58.117Z,99.99
2023-05-08T01:50:58.088Z,99.99
2023-05-08T01:51:58.082Z,99.99
2023-05-08T01:52:58.066Z,99.99
2023-05-08T01:53:58.067Z,99.99
2023-05-08T01:56:29.621Z,99.99
2023-05-08T01:57:29.620Z,99.99
2023-05-08T01:58:29.616Z,99.99
2023-05-08T01:59:29.652Z,99.99
2023-05-08T02:00:29.639Z,99.99
2023-05-08T02:01:29.610Z,99.99
2023-05-08T02:02:29.685Z,99.99
2023-05-08T02:03:29.656Z,99.99
2023-05-08T02:04:30.810Z,99.99
2023-05-08T02:05:29.552Z,99.99
2023-05-08T02:06:29.562Z,99.99
2023-05-08T02:07:29.512Z,99.99
2023-05-08T02:08:29.492Z,99.99
2023-05-08T02:09:29.505Z,99.99
2023-05-08T02:10:29.481Z,99.99
2023-05-08T02:11:29.476Z,99.99
2023-05-08T02:12:29.474Z,99.99
2023-05-08T02:13:29.460Z,99.99
2023-05-08T02:14:29.416Z,99.99
2023-05-08T02:15:29.483Z,99.99
2023-05-08T02:16:29.436Z,99.99
2023-05-08T02:17:29.427Z,99.99
2023-05-08T02:18:29.398Z,99.99
2023-05-08T02:19:29.360Z,99.99
2023-05-08T02:20:29.374Z,99.99
2023-05-08T02:21:29.346Z,99.99
2023-05-08T02:22:29.318Z,99.99
2023-05-08T02:23:29.352Z,99.99
2023-05-08T02:24:29.318Z,99.99
2023-05-08T02:25:29.347Z,99.99
2023-05-08T02:26:29.314Z,99.99
2023-05-08T02:27:29.316Z,99.99
2023-05-08T02:28:29.290Z,99.99
2023-05-08T02:29:29.262Z,99.99
2023-05-08T02:30:29.268Z,99.99
2023-05-08T02:31:29.281Z,99.99
2023-05-08T02:32:29.266Z,99.99
2023-05-08T02:33:29.214Z,99.99
2023-05-08T02:34:29.223Z,99.99
2023-05-08T02:35:29.204Z,99.99
2023-05-08T02:36:29.183Z,99.99
2023-05-08T02:37:29.176Z,99.99
2023-05-08T02:38:29.173Z,99.99
2023-05-08T02:39:29.154Z,99.99
2023-05-08T02:40:29.151Z,99.99
2023-05-08T02:41:29.117Z,99.99
2023-05-08T02:42:29.155Z,99.99
2023-05-08T02:43:29.092Z,99.99
2023-05-08T02:44:29.144Z,99.99
2023-05-08T02:45:29.044Z,99.99
2023-05-08T02:46:29.104Z,99.99
2023-05-08T02:47:29.054Z,99.99
2023-05-08T02:48:29.042Z,99.99
2023-05-08T02:49:29.047Z,99.99
2023-05-08T02:50:29.020Z,99.99
2023-05-08T02:51:28.979Z,99.99
2023-05-08T02:52:28.984Z,99.99
2023-05-08T02:53:29.000Z,99.99
2023-05-08T02:54:28.978Z,99.99
2023-05-08T02:55:28.926Z,99.99
2023-05-08T02:56:28.921Z,99.99
2023-05-08T02:57:28.936Z,99.99
2023-05-08T02:58:28.919Z,99.99
2023-05-08T02:59:28.906Z,99.99
2023-05-08T03:00:28.866Z,99.99
2023-05-08T03:01:28.977Z,99.99
2023-05-08T03:02:28.957Z,99.99
2023-05-08T03:03:28.955Z,99.99
2023-05-08T03:04:28.824Z,99.99
2023-05-08T03:05:28.835Z,99.99
2023-05-08T03:06:28.843Z,99.99
2023-05-08T03:07:28.814Z,99.99
2023-05-08T03:08:28.783Z,99.99
2023-05-08T03:09:28.763Z,99.99
2023-05-08T03:10:28.762Z,99.99
2023-05-08T03:11:28.778Z,99.99
2023-05-08T03:12:28.735Z,99.99
2023-05-08T03:13:28.779Z,99.99
2023-05-08T03:14:28.717Z,99.99
2023-05-08T03:15:28.704Z,99.99
2023-05-08T03:16:28.714Z,99.99
2023-05-08T03:17:28.690Z,99.99
2023-05-08T03:18:28.688Z,99.99
2023-05-08T03:19:28.687Z,99.99
2023-05-08T03:20:28.690Z,99.99
2023-05-08T03:21:28.645Z,99.99
2023-05-08T03:22:28.653Z,99.99
2023-05-08T03:23:28.631Z,99.99
2023-05-08T03:24:28.628Z,99.99
2023-05-08T03:25:28.605Z,99.99
2023-05-08T03:26:28.568Z,99.99
2023-05-08T03:27:28.607Z,99.99
2023-05-08T03:28:28.596Z,99.99
2023-05-08T03:29:28.534Z,99.99
2023-05-08T03:30:28.528Z,99.99
2023-05-08T03:31:28.600Z,99.99
2023-05-08T03:32:28.552Z,99.99
2023-05-08T03:33:28.489Z,99.99
2023-05-08T03:34:36.509Z,99.99
2023-05-08T03:35:28.461Z,99.99
2023-05-08T03:36:28.473Z,99.99
2023-05-08T03:37:28.504Z,99.99
2023-05-08T03:38:28.454Z,99.99
2023-05-08T03:39:28.430Z,99.99
2023-05-08T03:40:28.409Z,99.99
2023-05-08T03:41:28.708Z,99.99
2023-05-08T03:42:28.402Z,99.99
2023-05-08T03:43:28.364Z,99.99
2023-05-08T03:44:28.381Z,99.99
2023-05-08T03:45:28.347Z,99.99
2023-05-08T03:46:28.344Z,99.99
2023-05-08T03:47:28.375Z,99.99
2023-05-08T03:48:28.314Z,99.99
2023-05-08T03:49:28.295Z,99.99
2023-05-08T03:50:28.327Z,99.99
2023-05-08T03:51:28.302Z,99.99
2023-05-08T03:52:28.286Z,99.99
2023-05-08T03:53:28.270Z,99.99
2023-05-08T03:54:28.246Z,99.99
2023-05-08T03:55:28.250Z,99.99
2023-05-08T03:56:28.242Z,99.99
2023-05-08T03:57:29.906Z,99.99
2023-05-08T03:58:28.225Z,99.99
2023-05-08T03:59:28.196Z,99.99
2023-05-08T04:00:28.197Z,99.99
2023-05-08T04:01:28.209Z,99.99
2023-05-08T04:02:28.281Z,99.99
2023-05-08T04:03:28.262Z,99.99
2023-05-08T04:04:28.132Z,99.99
2023-05-08T04:05:28.146Z,99.99
2023-05-08T04:06:30.742Z,99.99
2023-05-08T04:07:28.106Z,99.99
2023-05-08T04:08:28.094Z,99.99
2023-05-08T04:09:28.067Z,99.99
2023-05-08T04:10:28.095Z,99.99
2023-05-08T04:11:28.080Z,99.99
2023-05-08T04:12:28.059Z,99.99
2023-05-08T04:13:28.096Z,99.99
2023-05-08T04:14:28.974Z,99.99
2023-05-08T04:15:28.010Z,99.99
2023-05-08T04:16:28.060Z,99.99
2023-05-08T04:17:28.033Z,99.99
2023-05-08T04:18:27.968Z,99.99
2023-05-08T04:19:27.960Z,99.99
2023-05-08T04:20:27.967Z,99.99
2023-05-08T04:21:27.940Z,99.99
2023-05-08T04:22:27.947Z,99.99
2023-05-08T04:23:27.921Z,99.99
2023-05-08T04:24:27.911Z,99.99
2023-05-08T04:25:27.877Z,99.99
2023-05-08T04:26:29.684Z,99.99
2023-05-08T04:27:27.903Z,99.99
2023-05-08T04:28:27.873Z,99.99
2023-05-08T04:29:27.828Z,99.99
2023-05-08T04:30:27.893Z,99.99
2023-05-08T04:31:27.937Z,99.99
2023-05-08T04:32:27.842Z,99.99
2023-05-08T04:33:27.870Z,99.99
2023-05-08T04:34:27.823Z,99.99
2023-05-08T04:35:27.792Z,99.99
2023-05-08T04:36:27.779Z,99.99
2023-05-08T04:37:27.753Z,99.99
2023-05-08T04:38:27.749Z,99.99
2023-05-08T04:39:27.731Z,99.99
2023-05-08T04:40:27.742Z,99.99
2023-05-08T04:41:27.718Z,99.99
2023-05-08T04:42:27.708Z,99.99
2023-05-08T04:43:27.693Z,99.99
2023-05-08T04:44:27.648Z,99.99
2023-05-08T04:45:27.693Z,99.99
2023-05-08T04:46:27.679Z,99.99
2023-05-08T04:47:27.723Z,99.99
2023-05-08T04:48:27.617Z,99.99
2023-05-08T04:49:27.620Z,99.99
2023-05-08T04:50:27.583Z,99.99
2023-05-08T04:51:27.632Z,99.99
2023-05-08T04:52:27.649Z,99.99
2023-05-08T04:53:27.575Z,99.99
2023-05-08T04:54:27.585Z,99.99
2023-05-08T04:55:27.578Z,99.99
2023-05-08T04:56:27.536Z,99.99
2023-05-08T04:57:27.543Z,99.99
2023-05-08T04:58:27.547Z,99.99
2023-05-08T04:59:27.512Z,99.99
2023-05-08T05:00:27.504Z,99.99
2023-05-08T05:01:27.545Z,99.99
2023-05-08T05:02:30.397Z,99.99
2023-05-08T05:03:27.496Z,99.99
2023-05-08T05:04:27.450Z,99.99
2023-05-08T05:05:27.432Z,99.99
2023-05-08T05:06:27.406Z,99.99
2023-05-08T05:07:27.394Z,99.99
2023-05-08T05:08:27.440Z,99.99
2023-05-08T05:09:27.377Z,99.99
2023-05-08T05:10:27.357Z,99.99
2023-05-08T05:11:27.390Z,99.99
2023-05-08T05:12:27.353Z,99.99
2023-05-08T05:13:27.347Z,99.99
2023-05-08T05:14:27.311Z,99.99
2023-05-08T05:15:27.352Z,99.99
2023-05-08T05:16:27.452Z,99.99
2023-05-08T05:17:27.293Z,99.99
2023-05-08T05:18:27.269Z,99.99
2023-05-08T05:19:27.534Z,99.99
2023-05-08T05:20:29.236Z,99.99
2023-05-08T05:21:27.261Z,99.99
2023-05-08T05:22:27.215Z,99.99
2023-05-08T05:23:27.210Z,99.99
2023-05-08T05:24:27.234Z,99.99
2023-05-08T05:25:27.177Z,99.99
2023-05-08T05:26:27.176Z,99.99
2023-05-08T05:27:27.180Z,99.99
2023-05-08T05:28:27.211Z,99.99
2023-05-08T05:29:27.135Z,99.99
2023-05-08T05:30:27.267Z,99.99
2023-05-08T05:31:27.172Z,99.99
2023-05-08T05:32:27.185Z,99.99
2023-05-08T05:33:27.078Z,99.99
2023-05-08T05:34:27.082Z,99.99
2023-05-08T05:35:27.066Z,99.99
2023-05-08T05:36:27.067Z,99.99
2023-05-08T05:37:27.030Z,99.99
2023-05-08T05:38:27.050Z,99.99
2023-05-08T05:39:27.079Z,99.99
2023-05-08T05:40:28.011Z,99.99
2023-05-08T05:41:26.997Z,99.99
2023-05-08T05:42:26.987Z,99.99
2023-05-08T05:43:27.008Z,99.99
2023-05-08T05:44:27.252Z,99.99
2023-05-08T05:45:26.953Z,99.99
2023-05-08T05:46:26.989Z,99.99
2023-05-08T05:47:26.978Z,99.99
2023-05-08T05:48:26.927Z,99.99
2023-05-08T05:49:26.889Z,99.99
2023-05-08T05:50:26.919Z,99.99
2023-05-08T05:51:28.725Z,99.99
2023-05-08T05:52:26.870Z,99.99
2023-05-08T05:53:26.876Z,99.99
2023-05-08T05:54:26.833Z,99.99
2023-05-08T05:55:26.856Z,99.99
2023-05-08T05:56:26.826Z,99.99
2023-05-08T05:57:26.812Z,99.99
2023-05-08T05:58:26.815Z,99.99
2023-05-08T05:59:26.815Z,99.99
2023-05-08T06:00:26.820Z,99.99
2023-05-08T06:01:27.799Z,99.99
2023-05-08T06:02:26.905Z,99.99
2023-05-08T06:03:27.014Z,99.99
2023-05-08T06:04:26.859Z,99.99
2023-05-08T06:05:26.789Z,99.99
2023-05-08T06:06:26.694Z,99.99
2023-05-08T06:07:26.733Z,99.99
2023-05-08T06:08:26.680Z,99.99
2023-05-08T06:09:26.677Z,99.99
2023-05-08T06:10:29.455Z,99.99
2023-05-08T06:11:27.503Z,99.99
2023-05-08T06:12:26.669Z,99.99
2023-05-08T06:13:26.723Z,99.99
2023-05-08T06:14:26.646Z,99.99
2023-05-08T06:15:26.597Z,99.99
2023-05-08T06:16:26.648Z,99.99
2023-05-08T06:17:26.588Z,99.99
2023-05-08T06:18:26.569Z,99.99
2023-05-08T06:19:26.586Z,99.99
2023-05-08T06:20:26.761Z,99.99
2023-05-08T06:21:28.425Z,99.99
2023-05-08T06:22:26.517Z,99.99
2023-05-08T06:23:26.534Z,99.99
2023-05-08T06:24:26.500Z,99.99
2023-05-08T06:25:26.505Z,99.99
2023-05-08T06:26:26.481Z,99.99
2023-05-08T06:27:26.455Z,99.99
2023-05-08T06:28:26.473Z,99.99
2023-05-08T06:29:26.544Z,99.99
2023-05-08T06:30:26.462Z,99.99
2023-05-08T06:31:28.138Z,99.99
2023-05-08T06:32:26.703Z,99.99
2023-05-08T06:33:27.103Z,99.99
2023-05-08T06:34:26.368Z,99.99
2023-05-08T06:35:26.378Z,99.99
2023-05-08T06:36:26.368Z,99.99
2023-05-08T06:37:26.343Z,99.99
2023-05-08T06:38:26.376Z,99.99
2023-05-08T06:39:26.329Z,99.99
2023-05-08T06:40:31.301Z,99.99
2023-05-08T06:41:26.320Z,99.99
2023-05-08T06:42:26.321Z,99.99
2023-05-08T06:43:26.281Z,99.99
2023-05-08T06:44:26.275Z,99.99
2023-05-08T06:45:26.266Z,99.99
2023-05-08T06:46:26.293Z,99.99
2023-05-08T06:47:26.269Z,99.99
2023-05-08T06:48:26.233Z,99.99
2023-05-08T06:49:26.203Z,99.99
2023-05-08T06:50:26.216Z,99.99
2023-05-08T06:51:26.884Z,99.99
2023-05-08T06:52:26.185Z,99.99
2023-05-08T06:53:26.171Z,99.99
2023-05-08T06:54:26.223Z,99.99
2023-05-08T06:55:26.150Z,99.99
2023-05-08T06:56:26.135Z,99.99
2023-05-08T06:57:26.114Z,99.99
2023-05-08T06:58:26.149Z,99.99
2023-05-08T06:59:26.088Z,99.99
2023-05-08T07:00:26.152Z,99.99
2023-05-08T07:01:27.876Z,99.99
2023-05-08T07:02:26.091Z,99.99
2023-05-08T07:03:27.248Z,99.99
2023-05-08T07:04:26.066Z,99.99
2023-05-08T07:05:26.072Z,99.99
2023-05-08T07:06:26.020Z,99.99
2023-05-08T07:07:28.776Z,99.99
2023-05-08T07:08:26.048Z,99.99
2023-05-08T07:09:25.982Z,99.99
2023-05-08T07:10:25.972Z,99.99
2023-05-08T07:11:26.042Z,99.99
2023-05-08T07:12:25.993Z,99.99
2023-05-08T07:13:26.007Z,99.99
2023-05-08T07:14:25.987Z,99.99
2023-05-08T07:15:26.919Z,99.99
2023-05-08T07:16:25.934Z,99.99
2023-05-08T07:17:25.921Z,99.99
2023-05-08T07:18:25.904Z,99.99
2023-05-08T07:19:25.919Z,99.99
2023-05-08T07:20:25.912Z,99.99
2023-05-08T07:21:25.841Z,99.99
2023-05-08T07:22:25.904Z,99.99
2023-05-08T07:23:25.817Z,99.99
2023-05-08T07:24:25.812Z,99.99
2023-05-08T07:25:25.796Z,99.99
2023-05-08T07:26:25.829Z,99.99
2023-05-08T07:27:25.779Z,99.99
2023-05-08T07:28:25.792Z,99.99
2023-05-08T07:29:25.774Z,99.99
2023-05-08T07:30:25.741Z,99.99
2023-05-08T07:31:25.740Z,99.99
2023-05-08T07:32:25.798Z,99.99
2023-05-08T07:33:25.718Z,99.99
2023-05-08T07:34:25.712Z,99.99
2023-05-08T07:35:25.689Z,99.99
2023-05-08T07:36:25.692Z,99.99
2023-05-08T07:37:25.662Z,99.99
2023-05-08T07:38:28.464Z,99.99
2023-05-08T07:39:25.706Z,99.86
2023-05-08T07:40:25.624Z,99.66
2023-05-08T07:41:25.802Z,99.25
2023-05-08T07:42:25.622Z,99.35
2023-05-08T07:43:25.603Z,99.15
2023-05-08T07:44:25.612Z,99.15
2023-05-08T07:45:25.582Z,98.65
2023-05-08T07:46:25.600Z,98.65
2023-05-08T07:47:25.580Z,98.44
2023-05-08T07:48:25.535Z,98.65
2023-05-08T07:49:25.566Z,98.60
2023-05-08T07:50:29.398Z,98.19
2023-05-08T07:51:26.251Z,97.99
2023-05-08T07:52:29.217Z,97.99
2023-05-08T07:53:27.165Z,97.79
2023-05-08T07:54:28.471Z,97.89
2023-05-08T07:55:25.472Z,97.99
2023-05-08T07:56:25.481Z,97.99
2023-05-08T07:57:25.461Z,98.09
2023-05-08T07:58:25.457Z,97.89
2023-05-08T07:59:25.513Z,98.19
2023-05-08T08:00:25.418Z,97.99
2023-05-08T08:01:25.402Z,97.99
2023-05-08T08:02:25.441Z,97.89
2023-05-08T08:03:25.421Z,98.09
2023-05-08T08:04:25.431Z,98.09
2023-05-08T08:05:25.377Z,98.09
2023-05-08T08:06:25.615Z,97.99
2023-05-08T08:07:25.341Z,98.09
2023-05-08T08:08:25.312Z,97.89
2023-05-08T08:09:25.416Z,97.89
2023-05-08T08:10:25.293Z,97.58
2023-05-08T08:11:25.289Z,97.49
2023-05-08T08:12:25.269Z,96.67
2023-05-08T08:13:25.307Z,96.88
2023-05-08T08:14:26.996Z,97.34
2023-05-08T08:15:25.249Z,97.34
2023-05-08T08:16:26.034Z,97.44
2023-05-08T08:17:26.906Z,97.60
2023-05-08T08:18:25.210Z,96.98
2023-05-08T08:19:25.213Z,96.58
2023-05-08T08:20:25.171Z,96.48
2023-05-08T08:21:25.180Z,96.58
2023-05-08T08:22:25.301Z,96.48
2023-05-08T08:23:25.232Z,96.69
2023-05-08T08:24:25.143Z,96.18
2023-05-08T08:25:25.133Z,95.42
2023-05-08T08:26:25.113Z,95.82
2023-05-08T08:27:25.125Z,95.82
2023-05-08T08:28:25.137Z,95.62
2023-05-08T08:29:25.100Z,95.67
2023-05-08T08:30:25.090Z,96.08
2023-05-08T08:31:25.146Z,95.87
2023-05-08T08:32:25.084Z,95.02
2023-05-08T08:33:25.052Z,94.82
2023-05-08T08:34:25.031Z,94.31
2023-05-08T08:35:25.062Z,94.51
2023-05-08T08:36:25.006Z,94.31
2023-05-08T08:37:24.996Z,94.31
2023-05-08T08:38:24.978Z,93.91
2023-05-08T08:39:24.972Z,94.01
2023-05-08T08:40:24.959Z,94.17
2023-05-08T08:41:24.932Z,94.78
2023-05-08T08:42:24.984Z,94.67
2023-05-08T08:43:24.911Z,94.07
2023-05-08T08:44:24.919Z,94.07
2023-05-08T08:45:24.897Z,94.47
2023-05-08T08:46:24.938Z,94.57
2023-05-08T08:47:24.910Z,93.56
2023-05-08T08:48:25.817Z,93.46
2023-05-08T08:49:24.876Z,93.66
2023-05-08T08:50:24.847Z,94.07
2023-05-08T08:51:25.775Z,94.27
2023-05-08T08:52:24.826Z,94.67
2023-05-08T08:53:24.804Z,94.67
2023-05-08T08:54:24.780Z,94.78
2023-05-08T08:55:24.829Z,94.87
2023-05-08T08:56:24.761Z,94.51
2023-05-08T08:57:24.764Z,94.72
2023-05-08T08:58:24.743Z,95.12
2023-05-08T08:59:24.737Z,95.02
2023-05-08T09:00:24.748Z,94.82
2023-05-08T09:01:24.877Z,95.73
2023-05-08T09:02:24.779Z,95.27
2023-05-08T09:03:24.742Z,94.56
2023-05-08T09:04:24.864Z,94.71
2023-05-08T09:05:24.677Z,95.17
2023-05-08T09:06:24.671Z,95.07
2023-05-08T09:07:24.668Z,95.37
2023-05-08T09:08:24.627Z,95.47
2023-05-08T09:09:24.624Z,95.37
2023-05-08T09:10:24.615Z,95.67
2023-05-08T09:11:24.644Z,95.67
2023-05-08T09:12:24.591Z,95.43
2023-05-08T09:13:24.634Z,95.12
2023-05-08T09:14:24.554Z,94.31
2023-05-08T09:15:24.572Z,93.75
2023-05-08T09:16:24.578Z,93.24
2023-05-08T09:17:24.611Z,92.64
2023-05-08T09:18:24.507Z,92.49
2023-05-08T09:19:26.340Z,93.20
2023-05-08T09:20:24.493Z,93.30
2023-05-08T09:21:24.486Z,93.20
2023-05-08T09:22:24.472Z,93.96
2023-05-08T09:23:24.470Z,93.87
2023-05-08T09:24:24.510Z,93.16
2023-05-08T09:25:24.517Z,92.35
2023-05-08T09:26:24.403Z,92.65
2023-05-08T09:27:24.414Z,92.85
2023-05-08T09:28:24.430Z,92.85
2023-05-08T09:29:24.576Z,93.16
2023-05-08T09:30:24.374Z,92.76
2023-05-08T09:31:24.426Z,93.16
2023-05-08T09:32:24.384Z,93.26
2023-05-08T09:33:24.360Z,93.36
2023-05-08T09:34:24.350Z,93.36
2023-05-08T09:35:24.306Z,93.26
2023-05-08T09:36:24.314Z,93.32
2023-05-08T09:37:24.281Z,92.91
2023-05-08T09:38:24.292Z,92.85
2023-05-08T09:39:24.277Z,92.76
2023-05-08T09:40:24.256Z,93.01
2023-05-08T09:41:24.236Z,93.21
2023-05-08T09:42:24.222Z,93.12
2023-05-08T09:43:24.218Z,93.46
2023-05-08T09:44:24.229Z,92.96
2023-05-08T09:45:24.188Z,93.05
2023-05-08T09:46:24.322Z,93.05
2023-05-08T09:47:24.335Z,92.96
2023-05-08T09:48:24.225Z,93.16
2023-05-08T09:49:24.141Z,93.05
2023-05-08T09:50:24.119Z,93.87
2023-05-08T09:51:24.129Z,93.56
2023-05-08T09:52:24.140Z,93.81
2023-05-08T09:53:24.099Z,94.11
2023-05-08T09:54:24.078Z,93.60
2023-05-08T09:55:24.063Z,94.11
2023-05-08T09:56:24.074Z,94.62
2023-05-08T09:57:24.068Z,95.02
2023-05-08T09:58:24.054Z,95.07
2023-05-08T09:59:24.016Z,94.96
2023-05-08T10:00:24.042Z,95.17
2023-05-08T10:01:24.129Z,95.17
2023-05-08T10:02:24.017Z,95.27
2023-05-08T10:03:24.274Z,95.17
2023-05-08T10:04:23.970Z,95.07
2023-05-08T10:05:24.030Z,95.37
2023-05-08T10:06:23.948Z,95.07
2023-05-08T10:07:23.953Z,95.17
2023-05-08T10:08:23.930Z,94.91
2023-05-08T10:09:23.979Z,94.96
2023-05-08T10:10:23.905Z,95.27
2023-05-08T10:11:23.929Z,95.67
2023-05-08T10:12:23.937Z,96.08
2023-05-08T10:13:23.916Z,95.87
2023-05-08T10:14:23.863Z,95.57
2023-05-08T10:15:23.844Z,95.57
2023-05-08T10:16:23.892Z,95.17
2023-05-08T10:17:23.872Z,95.47
2023-05-08T10:18:23.808Z,95.67
2023-05-08T10:19:23.828Z,95.83
2023-05-08T10:20:23.841Z,95.67
2023-05-08T10:21:23.807Z,95.27
2023-05-08T10:22:23.802Z,95.17
2023-05-08T10:23:23.763Z,95.43
2023-05-08T10:24:23.764Z,95.32
2023-05-08T10:25:23.757Z,95.47
2023-05-08T10:26:23.740Z,94.86
2023-05-08T10:27:23.712Z,94.46
2023-05-08T10:28:23.704Z,94.66
2023-05-08T10:29:23.704Z,94.46
2023-05-08T10:30:23.710Z,94.76
2023-05-08T10:31:23.696Z,94.76
2023-05-08T10:32:23.703Z,93.65
2023-05-08T10:33:23.645Z,93.55
2023-05-08T10:34:23.644Z,93.95
2023-05-08T10:35:24.781Z,94.15
2023-05-08T10:36:23.628Z,94.01
2023-05-08T10:37:23.618Z,93.91
2023-05-08T10:38:23.691Z,94.21
2023-05-08T10:39:23.594Z,94.01
2023-05-08T10:40:23.596Z,93.60
2023-05-08T10:41:23.596Z,93.40
2023-05-08T10:42:23.539Z,93.20
2023-05-08T10:43:23.569Z,92.69
2023-05-08T10:44:23.529Z,92.90
2023-05-08T10:45:23.509Z,92.96
2023-05-08T10:46:23.502Z,93.05
2023-05-08T10:47:23.591Z,92.35
2023-05-08T10:48:23.497Z,93.26
2023-05-08T10:49:23.479Z,92.91
2023-05-08T10:50:23.455Z,92.10
2023-05-08T10:51:23.478Z,91.80
2023-05-08T10:52:23.439Z,92.00
2023-05-08T10:53:23.443Z,91.76
2023-05-08T10:54:23.401Z,92.06
2023-05-08T10:55:23.419Z,91.96
2023-05-08T10:56:25.142Z,92.16
2023-05-08T10:57:23.379Z,91.80
2023-05-08T10:58:23.371Z,91.90
2023-05-08T10:59:23.341Z,92.21
2023-05-08T11:00:23.332Z,92.61
2023-05-08T11:01:23.344Z,92.81
2023-05-08T11:02:23.346Z,93.21
2023-05-08T11:03:31.386Z,93.21
2023-05-08T11:04:24.376Z,93.82
2023-05-08T11:05:23.307Z,94.32
2023-05-08T11:06:23.256Z,94.59
2023-05-08T11:07:23.256Z,94.59
2023-05-08T11:08:23.238Z,94.79
2023-05-08T11:09:23.263Z,94.68
2023-05-08T11:10:23.925Z,94.48
2023-05-08T11:11:23.203Z,94.68
2023-05-08T11:12:24.295Z,94.89
2023-05-08T11:13:23.340Z,94.43
2023-05-08T11:14:23.160Z,94.73
2023-05-08T11:15:24.745Z,95.14
2023-05-08T11:16:23.198Z,95.64
2023-05-08T11:17:23.274Z,96.14
2023-05-08T11:18:26.318Z,96.55
2023-05-08T11:19:23.122Z,96.85
2023-05-08T11:20:23.241Z,96.45
2023-05-08T11:21:23.958Z,96.55
2023-05-08T11:22:23.133Z,96.55
2023-05-08T11:23:23.148Z,96.39
2023-05-08T11:24:24.015Z,96.29
2023-05-08T11:25:25.116Z,96.59
2023-05-08T11:26:23.057Z,96.80
2023-05-08T11:27:23.011Z,96.75
2023-05-08T11:28:23.018Z,96.75
2023-05-08T11:29:22.996Z,96.75
2023-05-08T11:30:23.024Z,96.65
2023-05-08T11:31:23.071Z,96.25
2023-05-08T11:32:22.970Z,96.25
2023-05-08T11:33:22.997Z,96.45
2023-05-08T11:34:22.946Z,96.70
2023-05-08T11:35:22.939Z,96.30
2023-05-08T11:36:22.954Z,96.10
2023-05-08T11:37:22.904Z,95.79
2023-05-08T11:38:22.938Z,95.49
2023-05-08T11:39:22.878Z,95.04
2023-05-08T11:40:22.912Z,94.44
2023-05-08T11:41:22.841Z,94.34
2023-05-08T11:42:22.844Z,94.44
2023-05-08T11:43:22.829Z,94.39
2023-05-08T11:44:22.834Z,93.99
2023-05-08T11:45:22.819Z,93.29
2023-05-08T11:46:22.875Z,93.14
2023-05-08T11:47:22.988Z,92.63
2023-05-08T11:48:22.766Z,92.13
2023-05-08T11:49:26.866Z,91.53
2023-05-08T11:50:23.795Z,91.13
2023-05-08T11:51:22.763Z,91.13
2023-05-08T11:52:22.710Z,90.88
2023-05-08T11:53:22.710Z,90.98
2023-05-08T11:54:22.699Z,91.24
2023-05-08T11:55:23.486Z,90.94
2023-05-08T11:56:22.658Z,90.89
2023-05-08T11:57:22.690Z,90.09
2023-05-08T11:58:22.680Z,89.89
2023-05-08T11:59:27.573Z,89.64
2023-05-08T12:00:23.472Z,89.14
2023-05-08T12:01:22.616Z,88.84
2023-05-08T12:02:22.761Z,88.59
2023-05-08T12:03:23.225Z,87.79
2023-05-08T12:04:22.776Z,87.24
2023-05-08T12:05:22.697Z,87.55
2023-05-08T12:06:22.555Z,87.24
2023-05-08T12:07:22.625Z,86.24
2023-05-08T12:08:22.621Z,86.24
2023-05-08T12:09:22.538Z,85.53
2023-05-08T12:10:22.513Z,86.14
2023-05-08T12:11:22.516Z,86.85
2023-05-08T12:12:24.429Z,86.24
2023-05-08T12:13:22.537Z,85.70
2023-05-08T12:14:22.500Z,85.39
2023-05-08T12:15:22.469Z,86.36
2023-05-08T12:16:22.493Z,84.65
2023-05-08T12:17:22.746Z,83.65
2023-05-08T12:18:22.747Z,83.85
2023-05-08T12:19:22.484Z,84.65
2023-05-08T12:20:22.443Z,84.71
2023-05-08T12:21:22.387Z,83.45
2023-05-08T12:22:22.401Z,82.84
2023-05-08T12:23:22.386Z,83.55
2023-05-08T12:24:22.640Z,83.99
2023-05-08T12:25:22.336Z,84.55
2023-05-08T12:26:22.360Z,83.29
2023-05-08T12:27:22.322Z,83.39
2023-05-08T12:28:22.304Z,84.80
2023-05-08T12:29:22.661Z,84.75
2023-05-08T12:30:22.851Z,84.75
2023-05-08T12:31:22.333Z,83.65
2023-05-08T12:32:22.831Z,83.45
2023-05-08T12:33:22.248Z,83.61
2023-05-08T12:34:22.235Z,83.61
2023-05-08T12:35:22.276Z,83.27
2023-05-08T12:36:22.250Z,83.47
2023-05-08T12:37:22.214Z,83.57
2023-05-08T12:38:22.197Z,83.67
2023-05-08T12:39:22.197Z,82.60
2023-05-08T12:40:22.473Z,82.90
2023-05-08T12:41:22.179Z,82.81
2023-05-08T12:42:22.147Z,82.51
2023-05-08T12:43:22.129Z,83.01
2023-05-08T12:44:22.137Z,80.96
2023-05-08T12:45:22.381Z,80.46
2023-05-08T12:46:22.123Z,81.26
2023-05-08T12:47:22.171Z,80.86
2023-05-08T12:48:22.080Z,80.36
2023-05-08T12:49:22.063Z,80.76
2023-05-08T12:50:22.197Z,79.49
2023-05-08T12:51:22.990Z,79.03
2023-05-08T12:52:22.038Z,80.24
2023-05-08T12:53:22.040Z,81.24
2023-05-08T12:54:22.019Z,81.64